createdAt,value
2018-04-24T00:01:49.000Z,2.77
2018-04-24T00:04:17.119Z,2.23
2018-04-24T00:06:45.243Z,2.77
2018-04-24T00:09:13.339Z,4.67
2018-04-24T00:11:41.455Z,3.10
2018-04-24T00:14:09.558Z,3.03
2018-04-24T00:16:37.652Z,4.37
2018-04-24T00:19:05.775Z,2.93
2018-04-24T00:21:33.886Z,2.03
2018-04-24T00:24:02.041Z,2.13
2018-04-24T00:26:30.131Z,3.53
2018-04-24T00:28:58.263Z,3.87
2018-04-24T00:31:27.135Z,6.67
2018-04-24T00:33:56.072Z,3.33
2018-04-24T00:36:24.169Z,3.13
2018-04-24T00:38:52.269Z,3.27
2018-04-24T00:41:20.697Z,5.73
2018-04-24T00:43:49.573Z,5.97
2018-04-24T00:46:17.667Z,5.97
2018-04-24T00:48:46.552Z,6.97
2018-04-24T00:51:14.655Z,5.70
2018-04-24T00:53:42.755Z,6.40
2018-04-24T00:56:10.880Z,4.43
2018-04-24T00:58:38.983Z,3.00
2018-04-24T01:01:07.120Z,4.10
2018-04-24T01:03:35.964Z,5.90
2018-04-24T01:06:04.076Z,7.10
2018-04-24T01:08:32.222Z,6.53
2018-04-24T01:11:01.070Z,5.23
2018-04-24T01:13:29.187Z,5.10
2018-04-24T01:15:57.310Z,7.50
2018-04-24T01:18:25.389Z,6.77
2018-04-24T01:20:53.515Z,7.00
2018-04-24T01:23:21.603Z,6.03
2018-04-24T01:25:49.724Z,4.50
2018-04-24T01:28:17.824Z,4.93
2018-04-24T01:30:46.694Z,10.13
2018-04-24T01:33:14.790Z,9.53
2018-04-24T01:35:43.679Z,5.27
2018-04-24T01:38:11.777Z,6.90
2018-04-24T01:40:39.891Z,7.13
2018-04-24T01:43:08.001Z,6.63
2018-04-24T01:45:36.096Z,8.10
2018-04-24T01:48:04.961Z,6.53
2018-04-24T01:50:33.075Z,5.37
2018-04-24T01:53:01.932Z,7.90
2018-04-24T01:55:30.035Z,6.33
2018-04-24T01:57:58.911Z,4.57
2018-04-24T02:00:27.021Z,7.27
2018-04-24T02:02:55.879Z,6.40
2018-04-24T02:05:23.973Z,12.20
2018-04-24T02:07:52.849Z,7.87
2018-04-24T02:10:20.980Z,8.47
2018-04-24T02:12:49.088Z,4.90
2018-04-24T02:15:17.184Z,4.50
2018-04-24T02:17:45.292Z,9.97
2018-04-24T02:20:13.419Z,5.70
2018-04-24T02:22:41.557Z,8.43
2018-04-24T02:25:10.398Z,10.63
2018-04-24T02:27:38.537Z,6.23
2018-04-24T02:30:06.682Z,7.97
2018-04-24T02:32:34.752Z,9.43
2018-04-24T02:35:03.621Z,8.33
2018-04-24T02:37:31.708Z,4.30
2018-04-24T02:39:59.854Z,6.37
2018-04-24T02:42:27.945Z,6.47
2018-04-24T02:44:56.064Z,8.67
2018-04-24T02:47:24.937Z,5.83
2018-04-24T02:49:53.031Z,6.20
2018-04-24T02:52:21.917Z,9.40
2018-04-24T02:54:50.831Z,6.07
2018-04-24T02:57:19.675Z,9.60
2018-04-24T02:59:47.791Z,9.33
2018-04-24T03:02:16.660Z,7.80
2018-04-24T03:04:45.545Z,7.33
2018-04-24T03:07:13.644Z,7.30
2018-04-24T03:09:42.521Z,8.07
2018-04-24T03:12:10.624Z,6.20
2018-04-24T03:14:39.507Z,6.03
2018-04-24T03:17:08.377Z,12.20
2018-04-24T03:19:37.979Z,12.00
2018-04-24T03:22:06.079Z,5.07
2018-04-24T03:24:34.183Z,5.87
2018-04-24T03:27:02.297Z,4.83
2018-04-24T03:29:30.409Z,6.43
2018-04-24T03:31:58.505Z,5.53
2018-04-24T03:34:27.370Z,5.40
2018-04-24T03:36:55.484Z,8.03
2018-04-24T03:39:24.366Z,6.90
2018-04-24T03:41:52.463Z,5.33
2018-04-24T03:46:55.716Z,5.23
2018-04-24T03:49:23.831Z,4.30
2018-04-24T03:51:52.696Z,5.93
2018-04-24T03:54:20.790Z,5.03
2018-04-24T03:56:48.897Z,4.60
2018-04-24T03:59:17.037Z,7.73
2018-04-24T04:01:45.147Z,6.00
2018-04-24T04:04:14.005Z,6.70
2018-04-24T04:06:42.104Z,10.03
2018-04-24T04:09:11.019Z,7.60
2018-04-24T04:11:40.926Z,4.43
2018-04-24T04:14:09.772Z,6.60
2018-04-24T04:16:38.672Z,7.37
2018-04-24T04:19:18.696Z,5.57
2018-04-24T04:21:58.753Z,4.40
2018-04-24T04:24:38.707Z,4.20
2018-04-24T04:27:06.833Z,8.70
2018-04-24T04:29:35.757Z,4.50
2018-04-24T04:32:03.887Z,6.20
2018-04-24T04:34:31.997Z,6.33
2018-04-24T04:37:00.099Z,6.23
2018-04-24T04:39:28.204Z,6.57
2018-04-24T04:41:56.390Z,5.30
2018-04-24T04:44:24.499Z,6.80
2018-04-24T04:46:53.368Z,6.67
2018-04-24T04:49:21.463Z,8.80
2018-04-24T04:51:50.331Z,4.53
2018-04-24T04:54:18.443Z,6.47
2018-04-24T04:56:46.595Z,7.90
2018-04-24T04:59:14.704Z,4.87
2018-04-24T05:01:42.790Z,5.63
2018-04-24T05:04:10.903Z,8.57
2018-04-24T05:06:39.011Z,9.93
2018-04-24T05:09:07.868Z,5.50
2018-04-24T05:11:35.978Z,9.70
2018-04-24T05:14:04.835Z,4.63
2018-04-24T05:16:32.950Z,6.33
2018-04-24T05:19:01.815Z,8.20
2018-04-24T05:21:29.913Z,5.20
2018-04-24T05:23:58.025Z,6.73
2018-04-24T05:26:26.156Z,6.97
2018-04-24T05:28:54.999Z,5.53
2018-04-24T05:31:23.104Z,5.03
2018-04-24T05:33:51.230Z,6.80
2018-04-24T05:36:19.319Z,5.53
2018-04-24T05:38:47.432Z,5.60
2018-04-24T05:41:15.520Z,5.43
2018-04-24T05:43:43.639Z,7.93
2018-04-24T05:46:12.526Z,6.27
2018-04-24T05:48:41.391Z,7.37
2018-04-24T05:51:09.488Z,8.20
2018-04-24T05:53:38.365Z,6.13
2018-04-24T05:56:06.474Z,6.60
2018-04-24T05:58:35.351Z,8.03
2018-04-24T06:01:03.440Z,5.60
2018-04-24T06:03:32.312Z,7.40
2018-04-24T06:06:00.418Z,4.47
2018-04-24T06:08:28.548Z,8.50
2018-04-24T06:10:56.640Z,7.07
2018-04-24T06:13:24.740Z,7.03
2018-04-24T06:15:53.617Z,7.03
2018-04-24T06:18:21.739Z,7.63
2018-04-24T06:20:49.847Z,6.17
2018-04-24T06:23:18.745Z,6.73
2018-04-24T06:25:46.832Z,6.90
2018-04-24T06:28:14.924Z,5.17
2018-04-24T06:30:43.788Z,7.67
2018-04-24T06:33:11.899Z,7.13
2018-04-24T06:35:40.769Z,5.40
2018-04-24T06:38:08.891Z,8.13
2018-04-24T06:40:37.009Z,7.97
2018-04-24T06:43:05.120Z,6.73
2018-04-24T06:45:34.007Z,5.20
2018-04-24T06:48:02.120Z,9.77
2018-04-24T06:50:30.216Z,7.20
2018-04-24T06:52:58.332Z,9.10
2018-04-24T06:55:26.448Z,7.80
2018-04-24T06:57:54.568Z,7.73
2018-04-24T07:00:22.672Z,13.13
2018-04-24T07:02:50.767Z,7.70
2018-04-24T07:05:18.868Z,7.93
2018-04-24T07:07:46.977Z,8.33
2018-04-24T07:10:15.078Z,9.67
2018-04-24T07:12:43.185Z,10.47
2018-04-24T07:15:11.297Z,5.73
2018-04-24T07:17:39.395Z,9.10
2018-04-24T07:20:07.500Z,8.63
2018-04-24T07:22:36.393Z,10.10
2018-04-24T07:25:05.263Z,14.97
2018-04-24T07:27:33.400Z,9.33
2018-04-24T07:30:01.514Z,6.63
2018-04-24T07:32:29.599Z,13.03
2018-04-24T07:34:57.707Z,8.67
2018-04-24T07:37:25.803Z,17.93
2018-04-24T14:44:48.331Z,9.23
2018-04-24T14:47:16.495Z,7.73
2018-04-24T14:49:44.643Z,8.67
2018-04-24T14:52:12.827Z,7.77
2018-04-24T14:54:40.938Z,9.53
2018-04-24T14:57:09.034Z,6.90
2018-04-24T14:59:37.327Z,10.57
2018-04-24T15:02:05.564Z,8.17
2018-04-24T15:04:33.801Z,11.63
2018-04-24T15:07:05.612Z,7.93
2018-04-24T15:09:33.888Z,7.90
2018-04-24T15:12:02.037Z,9.33
2018-04-24T15:14:30.182Z,8.53
2018-04-24T15:16:58.392Z,8.47
2018-04-24T15:19:26.534Z,7.70
2018-04-24T15:21:54.772Z,9.97
2018-04-24T15:24:23.103Z,7.33
2018-04-24T15:26:51.376Z,5.80
2018-04-24T15:29:19.552Z,6.60
2018-04-24T15:31:47.865Z,9.13
2018-04-24T15:34:16.842Z,7.80
2018-04-24T15:36:45.150Z,9.70
2018-04-24T15:39:13.547Z,11.27
2018-04-24T15:41:42.085Z,7.10
2018-04-24T15:44:10.980Z,6.13
2018-04-24T15:46:39.465Z,7.33
2018-04-24T15:49:07.933Z,7.87
2018-04-24T15:51:36.257Z,8.60
2018-04-24T15:54:04.439Z,8.47
2018-04-24T15:56:33.574Z,7.77
2018-04-24T15:59:02.522Z,7.53
2018-04-24T16:01:31.409Z,5.20
2018-04-24T16:03:59.648Z,11.37
2018-04-24T16:06:27.834Z,6.07
2018-04-24T16:08:56.754Z,5.17
2018-04-24T16:11:24.936Z,6.73
2018-04-24T16:13:54.005Z,6.87
2018-04-24T16:16:22.141Z,7.97
2018-04-24T16:18:51.665Z,4.00
2018-04-24T16:21:20.252Z,6.63
2018-04-24T16:23:48.511Z,5.70
2018-04-24T16:26:17.396Z,8.37
2018-04-24T16:28:48.081Z,8.43
2018-04-24T16:31:17.111Z,5.97
2018-04-24T16:33:45.795Z,7.50
2018-04-24T16:36:14.245Z,8.03
2018-04-24T16:38:42.428Z,6.37
2018-04-24T16:41:10.592Z,3.63
2018-04-24T16:43:38.805Z,6.77
2018-04-24T16:46:07.248Z,5.77
2018-04-24T16:48:35.634Z,7.83
2018-04-24T16:51:04.058Z,7.27
2018-04-24T16:53:32.232Z,6.00
2018-04-24T16:56:00.697Z,6.13
2018-04-24T16:58:28.852Z,4.50
2018-04-24T17:00:57.724Z,7.87
2018-04-24T17:03:27.504Z,4.43
2018-04-24T17:05:55.814Z,5.10
2018-04-24T17:08:24.283Z,6.43
2018-04-24T17:10:52.652Z,6.07
2018-04-24T17:13:21.781Z,7.37
2018-04-24T17:15:49.968Z,5.27
2018-04-24T17:18:19.503Z,5.13
2018-04-24T17:20:48.228Z,10.37
2018-04-24T17:23:17.129Z,5.90
2018-04-24T17:25:46.294Z,6.90
2018-04-24T17:28:14.464Z,6.33
2018-04-24T17:30:42.652Z,7.47
2018-04-24T17:33:10.858Z,8.13
2018-04-24T17:35:39.095Z,8.57
2018-04-24T17:38:08.455Z,7.40
2018-04-24T17:40:36.841Z,5.17
2018-04-24T17:43:05.260Z,7.43
2018-04-24T17:45:34.633Z,5.70
2018-04-24T17:48:03.716Z,4.03
2018-04-24T17:50:32.053Z,5.93
2018-04-24T17:53:00.366Z,3.90
2018-04-24T17:55:28.876Z,6.60
2018-04-24T17:57:57.507Z,4.00
2018-04-24T18:00:25.793Z,3.77
2018-04-24T18:02:54.104Z,5.37
2018-04-24T18:05:22.531Z,5.53
2018-04-24T18:07:51.031Z,4.70
2018-04-24T18:10:19.543Z,5.03
2018-04-24T18:12:48.375Z,5.73
2018-04-24T18:15:17.639Z,4.87
2018-04-24T18:17:45.951Z,4.37
2018-04-24T18:20:14.351Z,5.93
2018-04-24T18:22:43.348Z,7.77
2018-04-24T18:25:11.547Z,4.13
2018-04-24T18:27:39.815Z,4.30
2018-04-24T18:30:08.084Z,4.77
2018-04-24T18:32:36.470Z,5.50
2018-04-24T18:35:05.899Z,6.40
2018-04-24T18:37:35.111Z,6.70
2018-04-24T18:40:04.245Z,5.40
2018-04-24T18:42:33.468Z,8.60
2018-04-24T18:45:01.846Z,3.20
2018-04-24T18:47:30.206Z,8.47
2018-04-24T18:49:58.595Z,5.90
2018-04-24T18:52:29.082Z,6.67
2018-04-24T18:54:57.357Z,3.73
2018-04-24T18:57:26.022Z,9.20
2018-04-24T18:59:54.588Z,5.60
2018-04-24T19:02:25.084Z,6.03
2018-04-24T19:04:53.474Z,3.57
2018-04-24T19:07:22.424Z,4.90
2018-04-24T19:09:50.601Z,3.97
2018-04-24T19:12:19.545Z,4.73
2018-04-24T19:14:47.771Z,3.50
2018-04-24T19:17:17.095Z,7.23
2018-04-24T19:19:45.412Z,3.70
2018-04-24T19:22:14.299Z,4.80
2018-04-24T19:24:50.685Z,4.40
2018-04-24T19:27:18.860Z,5.27
2018-04-24T19:29:48.107Z,5.57
2018-04-24T19:32:22.152Z,4.70
2018-04-24T19:34:50.377Z,3.80
2018-04-24T19:37:18.840Z,5.10
2018-04-24T19:39:52.965Z,7.23
2018-04-24T19:42:21.574Z,6.10
2018-04-24T19:44:50.648Z,4.57
2018-04-24T19:47:19.711Z,6.40
2018-04-24T19:49:53.634Z,3.93
2018-04-24T19:52:21.852Z,4.03
2018-04-24T19:54:55.896Z,6.37
2018-04-24T19:57:24.188Z,2.97
2018-04-24T19:59:52.477Z,7.30
2018-04-24T20:02:20.635Z,4.63
2018-04-24T20:04:48.922Z,6.60
2018-04-24T20:07:17.361Z,6.43
2018-04-24T20:09:46.384Z,5.20
2018-04-24T20:12:14.514Z,6.57
2018-04-24T20:14:42.634Z,6.13
2018-04-24T20:17:10.851Z,8.67
2018-04-24T20:19:38.986Z,6.70
2018-04-24T20:22:07.197Z,4.83
2018-04-24T20:24:35.579Z,7.40
2018-04-24T20:27:04.200Z,9.10
2018-04-24T20:29:32.352Z,6.70
2018-04-24T20:32:00.573Z,11.83
2018-04-24T20:34:28.780Z,7.03
2018-04-24T20:36:57.182Z,9.10
2018-04-24T20:39:25.596Z,14.93
2018-04-24T20:41:53.822Z,6.27
2018-04-24T20:44:22.008Z,18.90
2018-04-24T20:46:51.023Z,18.20
2018-04-24T20:49:19.955Z,17.57
2018-04-24T20:51:48.142Z,12.20
2018-04-24T20:54:16.294Z,21.17
2018-04-24T20:56:44.449Z,15.30
2018-04-24T20:59:13.347Z,14.60
2018-04-24T21:01:42.400Z,11.03
2018-04-24T21:04:10.541Z,17.37
2018-04-24T21:06:38.775Z,17.57
2018-04-24T21:09:06.917Z,16.73
2018-04-24T21:11:35.161Z,12.77
2018-04-24T21:14:03.920Z,21.73
2018-04-24T21:16:32.089Z,16.97
2018-04-24T21:19:00.208Z,15.57
2018-04-24T21:21:28.368Z,14.77
2018-04-24T21:23:57.300Z,13.17
2018-04-24T21:26:25.527Z,17.50
2018-04-24T21:28:54.553Z,13.37
2018-04-24T21:31:22.774Z,20.10
2018-04-24T21:33:52.480Z,17.40
2018-04-24T21:36:21.600Z,16.17
2018-04-24T21:38:49.815Z,20.67
2018-04-24T21:41:18.265Z,13.77
2018-04-24T21:43:46.570Z,16.23
2018-04-24T21:46:14.844Z,13.60
2018-04-24T21:48:44.881Z,16.57
2018-04-24T21:51:14.137Z,14.47
2018-04-24T21:53:42.425Z,13.93
2018-04-24T21:56:10.813Z,13.30
2018-04-24T21:58:39.060Z,13.73
2018-04-24T22:01:07.306Z,14.77
2018-04-24T22:03:35.497Z,15.37
2018-04-24T22:06:04.387Z,13.60
2018-04-24T22:08:33.911Z,13.43
2018-04-24T22:11:02.672Z,25.30
2018-04-24T22:13:30.986Z,17.33
2018-04-24T22:15:59.340Z,17.17
2018-04-24T22:18:28.168Z,15.93
2018-04-24T22:20:56.439Z,13.27
2018-04-24T22:23:25.569Z,23.33
2018-04-24T22:25:53.850Z,13.17
2018-04-24T22:28:22.146Z,13.73
2018-04-24T22:30:50.338Z,14.63
2018-04-24T22:33:18.738Z,16.23
2018-04-24T22:35:46.930Z,16.60
2018-04-24T22:38:15.120Z,16.53
2018-04-24T22:40:44.489Z,14.63
2018-04-24T22:43:12.744Z,14.53
2018-04-24T22:45:40.952Z,10.13
2018-04-24T22:48:21.029Z,12.40
2018-04-24T22:50:49.966Z,13.40
2018-04-24T22:53:18.162Z,13.43
2018-04-24T22:55:46.462Z,15.20
2018-04-24T22:58:14.647Z,14.07
2018-04-24T23:00:42.856Z,13.03
2018-04-24T23:03:11.057Z,12.27
2018-04-24T23:05:39.198Z,11.80
2018-04-24T23:08:07.469Z,12.27
2018-04-24T23:10:48.263Z,10.50
2018-04-24T23:13:28.439Z,11.00
2018-04-24T23:16:09.320Z,12.60
2018-04-24T23:18:49.513Z,11.50
2018-04-24T23:21:17.193Z,13.83
2018-04-24T23:23:45.539Z,12.70
2018-04-24T23:26:14.610Z,12.37
2018-04-24T23:28:42.888Z,12.07
2018-04-24T23:31:12.187Z,12.40
2018-04-24T23:33:40.469Z,9.53
2018-04-24T23:36:09.409Z,9.97
2018-04-24T23:38:37.604Z,11.33
2018-04-24T23:41:05.895Z,11.00
2018-04-24T23:43:34.091Z,12.30
2018-04-24T23:46:02.512Z,11.93
2018-04-24T23:48:30.799Z,13.80
2018-04-24T23:50:59.029Z,13.00
2018-04-24T23:53:27.238Z,14.60
2018-04-24T23:55:55.496Z,12.50
2018-04-24T23:58:23.995Z,9.80
